sensor_id;sensor_type;location;lat;lon;timestamp;temperature;humidity
60717;DHT22;46566;52.700;6.192;2023-05-14T00:01:24;13.30;99.90
60717;DHT22;46566;52.700;6.192;2023-05-14T00:03:50;13.30;99.90
60717;DHT22;46566;52.700;6.192;2023-05-14T00:06:16;13.30;99.90
60717;DHT22;46566;52.700;6.192;2023-05-14T00:08:41;13.20;99.90
60717;DHT22;46566;52.700;6.192;2023-05-14T00:11:07;13.20;99.90
60717;DHT22;46566;52.700;6.192;2023-05-14T00:13:34;13.20;99.90
60717;DHT22;46566;52.700;6.192;2023-05-14T00:16:00;13.10;99.90
60717;DHT22;46566;52.700;6.192;2023-05-14T00:18:26;13.10;99.90
60717;DHT22;46566;52.700;6.192;2023-05-14T00:20:52;13.10;99.90
60717;DHT22;46566;52.700;6.192;2023-05-14T00:23:22;13.10;99.90
60717;DHT22;46566;52.700;6.192;2023-05-14T00:25:48;13.10;99.90
60717;DHT22;46566;52.700;6.192;2023-05-14T00:28:14;13.00;99.90
60717;DHT22;46566;52.700;6.192;2023-05-14T00:30:40;13.00;99.90
60717;DHT22;46566;52.700;6.192;2023-05-14T00:33:06;13.00;99.90
60717;DHT22;46566;52.700;6.192;2023-05-14T00:35:32;13.00;99.90
60717;DHT22;46566;52.700;6.192;2023-05-14T00:38:02;12.90;99.90
60717;DHT22;46566;52.700;6.192;2023-05-14T00:40:28;12.80;99.90
60717;DHT22;46566;52.700;6.192;2023-05-14T00:42:55;12.70;99.90
60717;DHT22;46566;52.700;6.192;2023-05-14T00:45:21;12.70;99.90
60717;DHT22;46566;52.700;6.192;2023-05-14T00:47:47;12.70;99.90
60717;DHT22;46566;52.700;6.192;2023-05-14T00:50:15;12.70;99.90
60717;DHT22;46566;52.700;6.192;2023-05-14T00:52:41;12.60;99.90
60717;DHT22;46566;52.700;6.192;2023-05-14T00:55:07;12.60;99.90
60717;DHT22;46566;52.700;6.192;2023-05-14T00:57:34;12.60;99.90
60717;DHT22;46566;52.700;6.192;2023-05-14T01:00:01;12.60;99.90
60717;DHT22;46566;52.700;6.192;2023-05-14T01:02:27;12.60;99.90
60717;DHT22;46566;52.700;6.192;2023-05-14T01:04:53;12.50;99.90
60717;DHT22;46566;52.700;6.192;2023-05-14T01:10:07;12.50;99.90
60717;DHT22;46566;52.700;6.192;2023-05-14T01:12:55;12.50;99.90
60717;DHT22;46566;52.700;6.192;2023-05-14T01:15:27;12.50;99.90
60717;DHT22;46566;52.700;6.192;2023-05-14T01:18:07;12.40;99.90
60717;DHT22;46566;52.700;6.192;2023-05-14T01:20:33;12.40;99.90
60717;DHT22;46566;52.700;6.192;2023-05-14T01:22:59;12.40;99.90
60717;DHT22;46566;52.700;6.192;2023-05-14T01:25:25;12.30;99.90
60717;DHT22;46566;52.700;6.192;2023-05-14T01:30:52;12.20;99.90
60717;DHT22;46566;52.700;6.192;2023-05-14T01:33:18;12.20;99.90
60717;DHT22;46566;52.700;6.192;2023-05-14T01:35:44;12.20;99.90
60717;DHT22;46566;52.700;6.192;2023-05-14T01:38:12;12.20;99.90
60717;DHT22;46566;52.700;6.192;2023-05-14T01:40:39;12.20;99.90
60717;DHT22;46566;52.700;6.192;2023-05-14T01:43:05;12.10;99.90
60717;DHT22;46566;52.700;6.192;2023-05-14T01:45:34;12.00;99.90
60717;DHT22;46566;52.700;6.192;2023-05-14T01:48:00;12.00;99.90
60717;DHT22;46566;52.700;6.192;2023-05-14T01:50:26;12.00;99.90
60717;DHT22;46566;52.700;6.192;2023-05-14T01:52:52;12.00;99.90
60717;DHT22;46566;52.700;6.192;2023-05-14T01:55:21;12.00;99.90
60717;DHT22;46566;52.700;6.192;2023-05-14T01:57:49;12.00;99.90
60717;DHT22;46566;52.700;6.192;2023-05-14T02:00:15;12.00;99.90
60717;DHT22;46566;52.700;6.192;2023-05-14T02:02:41;12.00;99.90
60717;DHT22;46566;52.700;6.192;2023-05-14T02:05:10;12.00;99.90
60717;DHT22;46566;52.700;6.192;2023-05-14T02:07:36;12.00;99.90
60717;DHT22;46566;52.700;6.192;2023-05-14T02:10:02;11.90;99.90
60717;DHT22;46566;52.700;6.192;2023-05-14T02:12:28;11.90;99.90
60717;DHT22;46566;52.700;6.192;2023-05-14T02:14:54;11.90;99.90
60717;DHT22;46566;52.700;6.192;2023-05-14T02:17:20;11.90;99.90
60717;DHT22;46566;52.700;6.192;2023-05-14T02:19:45;11.90;99.90
60717;DHT22;46566;52.700;6.192;2023-05-14T02:22:12;11.90;99.90
60717;DHT22;46566;52.700;6.192;2023-05-14T02:24:37;11.80;99.90
60717;DHT22;46566;52.700;6.192;2023-05-14T02:27:04;11.90;99.90
60717;DHT22;46566;52.700;6.192;2023-05-14T02:29:30;11.90;99.90
60717;DHT22;46566;52.700;6.192;2023-05-14T02:31:56;11.90;99.90
60717;DHT22;46566;52.700;6.192;2023-05-14T02:34:22;11.80;99.90
60717;DHT22;46566;52.700;6.192;2023-05-14T02:36:52;11.80;99.90
60717;DHT22;46566;52.700;6.192;2023-05-14T02:39:18;11.80;99.90
60717;DHT22;46566;52.700;6.192;2023-05-14T02:41:44;11.80;99.90
60717;DHT22;46566;52.700;6.192;2023-05-14T02:44:10;11.80;99.90
60717;DHT22;46566;52.700;6.192;2023-05-14T02:46:36;11.80;99.90
60717;DHT22;46566;52.700;6.192;2023-05-14T02:49:01;11.70;99.90
60717;DHT22;46566;52.700;6.192;2023-05-14T02:51:27;11.60;99.90
60717;DHT22;46566;52.700;6.192;2023-05-14T02:53:53;11.60;99.90
60717;DHT22;46566;52.700;6.192;2023-05-14T02:56:19;11.50;99.90
60717;DHT22;46566;52.700;6.192;2023-05-14T02:58:45;11.60;99.90
60717;DHT22;46566;52.700;6.192;2023-05-14T03:01:11;11.60;99.90
60717;DHT22;46566;52.700;6.192;2023-05-14T03:03:37;11.50;99.90
60717;DHT22;46566;52.700;6.192;2023-05-14T03:06:03;11.50;99.90
60717;DHT22;46566;52.700;6.192;2023-05-14T03:08:29;11.50;99.90
60717;DHT22;46566;52.700;6.192;2023-05-14T03:10:55;11.50;99.90
60717;DHT22;46566;52.700;6.192;2023-05-14T03:13:21;11.50;99.90
60717;DHT22;46566;52.700;6.192;2023-05-14T03:15:46;11.40;99.90
60717;DHT22;46566;52.700;6.192;2023-05-14T03:18:19;11.40;99.90
60717;DHT22;46566;52.700;6.192;2023-05-14T03:20:45;11.40;99.90
60717;DHT22;46566;52.700;6.192;2023-05-14T03:23:11;11.40;99.90
60717;DHT22;46566;52.700;6.192;2023-05-14T03:25:36;11.40;99.90
60717;DHT22;46566;52.700;6.192;2023-05-14T03:28:02;11.40;99.90
60717;DHT22;46566;52.700;6.192;2023-05-14T03:30:28;11.40;99.90
60717;DHT22;46566;52.700;6.192;2023-05-14T03:32:54;11.40;99.90
60717;DHT22;46566;52.700;6.192;2023-05-14T03:35:20;11.40;99.90
60717;DHT22;46566;52.700;6.192;2023-05-14T03:37:45;11.40;99.90
60717;DHT22;46566;52.700;6.192;2023-05-14T03:40:11;11.30;99.90
60717;DHT22;46566;52.700;6.192;2023-05-14T03:42:37;11.30;99.90
60717;DHT22;46566;52.700;6.192;2023-05-14T03:45:03;11.30;99.90
60717;DHT22;46566;52.700;6.192;2023-05-14T03:47:28;11.30;99.90
60717;DHT22;46566;52.700;6.192;2023-05-14T03:49:55;11.30;99.90
60717;DHT22;46566;52.700;6.192;2023-05-14T03:52:21;11.30;99.90
60717;DHT22;46566;52.700;6.192;2023-05-14T03:54:47;11.30;99.90
60717;DHT22;46566;52.700;6.192;2023-05-14T03:57:14;11.30;99.90
60717;DHT22;46566;52.700;6.192;2023-05-14T03:59:40;11.20;99.90
60717;DHT22;46566;52.700;6.192;2023-05-14T04:02:06;11.20;99.90
60717;DHT22;46566;52.700;6.192;2023-05-14T04:04:32;11.20;99.90
60717;DHT22;46566;52.700;6.192;2023-05-14T04:06:58;11.20;99.90
60717;DHT22;46566;52.700;6.192;2023-05-14T04:09:26;11.20;99.90
60717;DHT22;46566;52.700;6.192;2023-05-14T04:11:52;11.20;99.90
60717;DHT22;46566;52.700;6.192;2023-05-14T04:14:18;11.20;99.90
60717;DHT22;46566;52.700;6.192;2023-05-14T04:16:44;11.20;99.90
60717;DHT22;46566;52.700;6.192;2023-05-14T04:19:09;11.20;99.90
60717;DHT22;46566;52.700;6.192;2023-05-14T04:21:35;11.20;99.90
60717;DHT22;46566;52.700;6.192;2023-05-14T04:24:01;11.20;99.90
60717;DHT22;46566;52.700;6.192;2023-05-14T04:26:26;11.20;99.90
60717;DHT22;46566;52.700;6.192;2023-05-14T04:28:52;11.10;99.90
60717;DHT22;46566;52.700;6.192;2023-05-14T04:31:18;11.10;99.90
60717;DHT22;46566;52.700;6.192;2023-05-14T04:33:44;11.10;99.90
60717;DHT22;46566;52.700;6.192;2023-05-14T04:36:09;11.10;99.90
60717;DHT22;46566;52.700;6.192;2023-05-14T04:38:35;11.10;99.90
60717;DHT22;46566;52.700;6.192;2023-05-14T04:41:01;11.10;99.90
60717;DHT22;46566;52.700;6.192;2023-05-14T04:43:26;11.00;99.90
60717;DHT22;46566;52.700;6.192;2023-05-14T04:45:52;11.00;99.90
60717;DHT22;46566;52.700;6.192;2023-05-14T04:48:18;11.00;99.90
60717;DHT22;46566;52.700;6.192;2023-05-14T04:50:44;11.00;99.90
60717;DHT22;46566;52.700;6.192;2023-05-14T04:53:10;11.00;99.90
60717;DHT22;46566;52.700;6.192;2023-05-14T04:55:36;11.00;99.90
60717;DHT22;46566;52.700;6.192;2023-05-14T04:58:02;11.00;99.90
60717;DHT22;46566;52.700;6.192;2023-05-14T05:00:28;11.00;99.90
60717;DHT22;46566;52.700;6.192;2023-05-14T05:02:54;11.00;99.90
60717;DHT22;46566;52.700;6.192;2023-05-14T05:05:19;11.00;99.90
60717;DHT22;46566;52.700;6.192;2023-05-14T05:07:45;11.10;99.90
60717;DHT22;46566;52.700;6.192;2023-05-14T05:10:11;11.10;99.90
60717;DHT22;46566;52.700;6.192;2023-05-14T05:12:37;11.10;99.90
60717;DHT22;46566;52.700;6.192;2023-05-14T05:15:03;11.10;99.90
60717;DHT22;46566;52.700;6.192;2023-05-14T05:17:30;11.20;99.90
60717;DHT22;46566;52.700;6.192;2023-05-14T05:19:55;11.30;99.90
60717;DHT22;46566;52.700;6.192;2023-05-14T05:22:22;11.30;99.90
60717;DHT22;46566;52.700;6.192;2023-05-14T05:24:47;11.30;99.90
60717;DHT22;46566;52.700;6.192;2023-05-14T05:27:14;11.30;99.90
60717;DHT22;46566;52.700;6.192;2023-05-14T05:29:39;11.40;99.90
60717;DHT22;46566;52.700;6.192;2023-05-14T05:32:06;11.50;99.90
60717;DHT22;46566;52.700;6.192;2023-05-14T05:34:32;11.60;99.90
60717;DHT22;46566;52.700;6.192;2023-05-14T05:36:58;11.60;99.90
60717;DHT22;46566;52.700;6.192;2023-05-14T05:39:24;11.70;99.90
60717;DHT22;46566;52.700;6.192;2023-05-14T05:41:49;11.70;99.90
60717;DHT22;46566;52.700;6.192;2023-05-14T05:44:15;11.70;99.90
60717;DHT22;46566;52.700;6.192;2023-05-14T05:46:41;11.80;99.90
60717;DHT22;46566;52.700;6.192;2023-05-14T05:49:07;11.80;99.90
60717;DHT22;46566;52.700;6.192;2023-05-14T05:51:32;11.80;99.90
60717;DHT22;46566;52.700;6.192;2023-05-14T05:53:58;11.90;99.90
60717;DHT22;46566;52.700;6.192;2023-05-14T05:56:24;11.90;99.90
60717;DHT22;46566;52.700;6.192;2023-05-14T05:58:49;12.00;99.90
60717;DHT22;46566;52.700;6.192;2023-05-14T06:01:16;12.00;99.90
60717;DHT22;46566;52.700;6.192;2023-05-14T06:03:41;12.10;99.90
60717;DHT22;46566;52.700;6.192;2023-05-14T06:06:07;12.10;99.90
60717;DHT22;46566;52.700;6.192;2023-05-14T06:08:33;12.10;99.90
60717;DHT22;46566;52.700;6.192;2023-05-14T06:10:58;12.10;99.90
60717;DHT22;46566;52.700;6.192;2023-05-14T06:13:24;12.20;99.90
60717;DHT22;46566;52.700;6.192;2023-05-14T06:15:50;12.20;99.90
60717;DHT22;46566;52.700;6.192;2023-05-14T06:18:16;12.30;99.90
60717;DHT22;46566;52.700;6.192;2023-05-14T06:20:42;12.30;99.90
60717;DHT22;46566;52.700;6.192;2023-05-14T06:23:09;12.40;99.90
60717;DHT22;46566;52.700;6.192;2023-05-14T06:25:36;12.40;99.90
60717;DHT22;46566;52.700;6.192;2023-05-14T06:28:02;12.50;99.90
60717;DHT22;46566;52.700;6.192;2023-05-14T06:30:28;12.50;99.90
60717;DHT22;46566;52.700;6.192;2023-05-14T06:32:54;12.60;99.90
60717;DHT22;46566;52.700;6.192;2023-05-14T06:35:19;12.70;99.90
60717;DHT22;46566;52.700;6.192;2023-05-14T06:37:45;12.70;99.90
60717;DHT22;46566;52.700;6.192;2023-05-14T06:40:12;12.80;99.90
60717;DHT22;46566;52.700;6.192;2023-05-14T06:42:40;12.80;99.90
60717;DHT22;46566;52.700;6.192;2023-05-14T06:45:06;12.90;99.90
60717;DHT22;46566;52.700;6.192;2023-05-14T06:47:32;12.90;99.90
60717;DHT22;46566;52.700;6.192;2023-05-14T06:49:58;13.00;99.90
60717;DHT22;46566;52.700;6.192;2023-05-14T06:52:25;13.00;99.90
60717;DHT22;46566;52.700;6.192;2023-05-14T06:54:51;13.10;99.90
60717;DHT22;46566;52.700;6.192;2023-05-14T06:57:16;13.20;99.90
60717;DHT22;46566;52.700;6.192;2023-05-14T06:59:42;13.20;99.90
60717;DHT22;46566;52.700;6.192;2023-05-14T07:02:08;13.40;99.90
60717;DHT22;46566;52.700;6.192;2023-05-14T07:04:34;13.40;99.90
60717;DHT22;46566;52.700;6.192;2023-05-14T07:07:00;13.50;99.90
60717;DHT22;46566;52.700;6.192;2023-05-14T07:09:26;13.60;99.90
60717;DHT22;46566;52.700;6.192;2023-05-14T07:11:52;13.70;99.90
60717;DHT22;46566;52.700;6.192;2023-05-14T07:14:18;13.90;99.90
60717;DHT22;46566;52.700;6.192;2023-05-14T07:16:43;14.00;99.90
60717;DHT22;46566;52.700;6.192;2023-05-14T07:19:11;14.10;99.90
60717;DHT22;46566;52.700;6.192;2023-05-14T07:21:37;14.10;99.90
60717;DHT22;46566;52.700;6.192;2023-05-14T07:24:03;14.20;99.90
60717;DHT22;46566;52.700;6.192;2023-05-14T07:26:28;14.40;99.90
60717;DHT22;46566;52.700;6.192;2023-05-14T07:28:54;14.40;99.90
60717;DHT22;46566;52.700;6.192;2023-05-14T07:31:20;14.50;99.90
60717;DHT22;46566;52.700;6.192;2023-05-14T07:33:46;14.50;99.90
60717;DHT22;46566;52.700;6.192;2023-05-14T07:36:11;14.60;99.90
60717;DHT22;46566;52.700;6.192;2023-05-14T07:38:40;14.70;99.90
60717;DHT22;46566;52.700;6.192;2023-05-14T07:41:06;14.80;99.90
60717;DHT22;46566;52.700;6.192;2023-05-14T07:43:32;14.80;99.90
60717;DHT22;46566;52.700;6.192;2023-05-14T07:45:58;14.90;99.90
60717;DHT22;46566;52.700;6.192;2023-05-14T07:48:23;15.00;99.90
60717;DHT22;46566;52.700;6.192;2023-05-14T07:50:49;15.10;99.90
60717;DHT22;46566;52.700;6.192;2023-05-14T07:53:16;15.10;99.90
60717;DHT22;46566;52.700;6.192;2023-05-14T07:55:43;15.20;99.90
60717;DHT22;46566;52.700;6.192;2023-05-14T07:58:09;15.30;99.90
60717;DHT22;46566;52.700;6.192;2023-05-14T08:00:35;15.40;99.90
60717;DHT22;46566;52.700;6.192;2023-05-14T08:03:00;15.60;99.90
60717;DHT22;46566;52.700;6.192;2023-05-14T08:05:26;15.70;99.90
60717;DHT22;46566;52.700;6.192;2023-05-14T08:07:52;16.00;99.90
60717;DHT22;46566;52.700;6.192;2023-05-14T08:10:17;16.50;99.90
60717;DHT22;46566;52.700;6.192;2023-05-14T08:12:43;17.10;99.90
60717;DHT22;46566;52.700;6.192;2023-05-14T08:15:09;17.50;99.90
60717;DHT22;46566;52.700;6.192;2023-05-14T08:17:35;17.70;99.90
60717;DHT22;46566;52.700;6.192;2023-05-14T08:20:01;17.60;99.90
60717;DHT22;46566;52.700;6.192;2023-05-14T08:22:27;17.40;99.90
60717;DHT22;46566;52.700;6.192;2023-05-14T08:24:53;17.20;99.90
60717;DHT22;46566;52.700;6.192;2023-05-14T08:27:22;17.10;99.90
60717;DHT22;46566;52.700;6.192;2023-05-14T08:29:47;17.00;99.90
60717;DHT22;46566;52.700;6.192;2023-05-14T08:32:13;17.20;99.90
60717;DHT22;46566;52.700;6.192;2023-05-14T08:34:38;17.50;99.90
60717;DHT22;46566;52.700;6.192;2023-05-14T08:37:04;17.90;99.90
60717;DHT22;46566;52.700;6.192;2023-05-14T08:39:30;18.50;99.90
60717;DHT22;46566;52.700;6.192;2023-05-14T08:41:56;19.20;99.90
60717;DHT22;46566;52.700;6.192;2023-05-14T08:44:38;20.00;99.90
60717;DHT22;46566;52.700;6.192;2023-05-14T08:47:04;20.80;99.90
60717;DHT22;46566;52.700;6.192;2023-05-14T08:49:41;21.30;99.90
60717;DHT22;46566;52.700;6.192;2023-05-14T08:52:08;21.80;99.90
60717;DHT22;46566;52.700;6.192;2023-05-14T08:54:34;22.00;99.90
60717;DHT22;46566;52.700;6.192;2023-05-14T08:57:02;22.50;99.90
60717;DHT22;46566;52.700;6.192;2023-05-14T08:59:28;22.70;99.90
60717;DHT22;46566;52.700;6.192;2023-05-14T09:01:55;22.80;99.90
60717;DHT22;46566;52.700;6.192;2023-05-14T09:04:23;23.00;99.90
60717;DHT22;46566;52.700;6.192;2023-05-14T09:06:50;23.20;99.90
60717;DHT22;46566;52.700;6.192;2023-05-14T09:09:16;23.20;99.90
60717;DHT22;46566;52.700;6.192;2023-05-14T09:11:46;23.10;99.90
60717;DHT22;46566;52.700;6.192;2023-05-14T09:14:12;23.30;99.90
60717;DHT22;46566;52.700;6.192;2023-05-14T09:16:39;23.40;99.90
60717;DHT22;46566;52.700;6.192;2023-05-14T09:19:07;23.50;99.90
60717;DHT22;46566;52.700;6.192;2023-05-14T09:21:33;23.60;99.90
60717;DHT22;46566;52.700;6.192;2023-05-14T09:27:32;23.90;91.30
60717;DHT22;46566;52.700;6.192;2023-05-14T09:32:35;23.80;98.20
60717;DHT22;46566;52.700;6.192;2023-05-14T09:35:19;23.80;99.10
60717;DHT22;46566;52.700;6.192;2023-05-14T09:37:48;23.80;98.00
60717;DHT22;46566;52.700;6.192;2023-05-14T09:40:14;23.70;94.40
60717;DHT22;46566;52.700;6.192;2023-05-14T09:42:40;23.70;98.70
60717;DHT22;46566;52.700;6.192;2023-05-14T09:45:10;23.80;92.70
60717;DHT22;46566;52.700;6.192;2023-05-14T09:47:36;23.80;88.90
60717;DHT22;46566;52.700;6.192;2023-05-14T09:50:03;24.00;78.60
60717;DHT22;46566;52.700;6.192;2023-05-14T09:52:29;24.10;82.40
60717;DHT22;46566;52.700;6.192;2023-05-14T09:54:55;24.10;95.00
60717;DHT22;46566;52.700;6.192;2023-05-14T09:57:21;24.10;95.40
60717;DHT22;46566;52.700;6.192;2023-05-14T09:59:47;24.10;86.70
60717;DHT22;46566;52.700;6.192;2023-05-14T10:02:29;23.90;85.60
60717;DHT22;46566;52.700;6.192;2023-05-14T10:04:59;24.00;92.40
60717;DHT22;46566;52.700;6.192;2023-05-14T10:07:33;24.00;83.60
60717;DHT22;46566;52.700;6.192;2023-05-14T10:10:02;24.00;87.40
60717;DHT22;46566;52.700;6.192;2023-05-14T10:12:37;24.10;78.40
60717;DHT22;46566;52.700;6.192;2023-05-14T10:15:27;24.10;95.70
60717;DHT22;46566;52.700;6.192;2023-05-14T10:17:59;24.30;96.50
60717;DHT22;46566;52.700;6.192;2023-05-14T10:20:28;24.50;90.10
60717;DHT22;46566;52.700;6.192;2023-05-14T10:22:55;24.70;75.20
60717;DHT22;46566;52.700;6.192;2023-05-14T10:25:21;24.80;69.30
60717;DHT22;46566;52.700;6.192;2023-05-14T10:27:47;24.90;70.30
60717;DHT22;46566;52.700;6.192;2023-05-14T10:30:13;24.80;69.50
60717;DHT22;46566;52.700;6.192;2023-05-14T10:32:39;24.80;67.70
60717;DHT22;46566;52.700;6.192;2023-05-14T10:35:17;24.80;65.20
60717;DHT22;46566;52.700;6.192;2023-05-14T10:37:45;24.80;62.70
60717;DHT22;46566;52.700;6.192;2023-05-14T10:40:12;24.90;64.10
60717;DHT22;46566;52.700;6.192;2023-05-14T10:42:38;24.80;65.90
60717;DHT22;46566;52.700;6.192;2023-05-14T10:45:12;24.80;64.40
60717;DHT22;46566;52.700;6.192;2023-05-14T10:47:43;24.70;65.40
60717;DHT22;46566;52.700;6.192;2023-05-14T10:50:13;24.90;65.30
60717;DHT22;46566;52.700;6.192;2023-05-14T10:52:43;25.10;65.20
60717;DHT22;46566;52.700;6.192;2023-05-14T10:55:12;25.30;64.70
60717;DHT22;46566;52.700;6.192;2023-05-14T10:57:41;25.40;65.20
60717;DHT22;46566;52.700;6.192;2023-05-14T11:00:07;25.40;63.60
60717;DHT22;46566;52.700;6.192;2023-05-14T11:07:36;25.30;63.20
60717;DHT22;46566;52.700;6.192;2023-05-14T11:10:13;25.40;61.00
60717;DHT22;46566;52.700;6.192;2023-05-14T11:12:41;25.30;61.20
60717;DHT22;46566;52.700;6.192;2023-05-14T11:15:09;25.40;62.10
60717;DHT22;46566;52.700;6.192;2023-05-14T11:17:36;25.30;58.90
60717;DHT22;46566;52.700;6.192;2023-05-14T11:20:03;25.30;60.70
60717;DHT22;46566;52.700;6.192;2023-05-14T11:22:33;25.40;60.60
60717;DHT22;46566;52.700;6.192;2023-05-14T11:24:59;25.50;59.40
60717;DHT22;46566;52.700;6.192;2023-05-14T11:27:25;25.60;62.00
60717;DHT22;46566;52.700;6.192;2023-05-14T11:29:51;25.70;60.60
60717;DHT22;46566;52.700;6.192;2023-05-14T11:32:17;25.80;60.50
60717;DHT22;46566;52.700;6.192;2023-05-14T11:34:44;25.70;60.20
60717;DHT22;46566;52.700;6.192;2023-05-14T11:37:11;25.70;59.10
60717;DHT22;46566;52.700;6.192;2023-05-14T11:39:45;25.70;60.30
60717;DHT22;46566;52.700;6.192;2023-05-14T11:42:11;25.70;60.90
60717;DHT22;46566;52.700;6.192;2023-05-14T11:44:39;25.60;60.50
60717;DHT22;46566;52.700;6.192;2023-05-14T11:47:06;25.70;60.50
60717;DHT22;46566;52.700;6.192;2023-05-14T11:49:32;25.70;58.70
60717;DHT22;46566;52.700;6.192;2023-05-14T11:52:01;25.40;57.50
60717;DHT22;46566;52.700;6.192;2023-05-14T11:54:28;25.50;58.30
60717;DHT22;46566;52.700;6.192;2023-05-14T11:56:55;25.70;60.30
60717;DHT22;46566;52.700;6.192;2023-05-14T11:59:32;25.80;59.00
60717;DHT22;46566;52.700;6.192;2023-05-14T12:01:58;25.80;58.20
60717;DHT22;46566;52.700;6.192;2023-05-14T12:04:23;25.90;59.10
60717;DHT22;46566;52.700;6.192;2023-05-14T12:06:53;26.00;59.10
60717;DHT22;46566;52.700;6.192;2023-05-14T12:09:19;26.20;60.10
60717;DHT22;46566;52.700;6.192;2023-05-14T12:11:47;26.20;56.70
60717;DHT22;46566;52.700;6.192;2023-05-14T12:14:21;26.10;59.40
60717;DHT22;46566;52.700;6.192;2023-05-14T12:16:47;26.20;58.40
60717;DHT22;46566;52.700;6.192;2023-05-14T12:19:15;26.40;57.90
60717;DHT22;46566;52.700;6.192;2023-05-14T12:21:47;26.40;56.70
60717;DHT22;46566;52.700;6.192;2023-05-14T12:24:18;26.40;55.80
60717;DHT22;46566;52.700;6.192;2023-05-14T12:26:48;26.20;55.00
60717;DHT22;46566;52.700;6.192;2023-05-14T12:29:15;26.30;56.00
60717;DHT22;46566;52.700;6.192;2023-05-14T12:31:46;26.30;54.90
60717;DHT22;46566;52.700;6.192;2023-05-14T12:34:13;26.40;56.10
60717;DHT22;46566;52.700;6.192;2023-05-14T12:36:38;26.40;53.90
60717;DHT22;46566;52.700;6.192;2023-05-14T12:39:04;26.50;55.30
60717;DHT22;46566;52.700;6.192;2023-05-14T12:41:30;26.80;56.50
60717;DHT22;46566;52.700;6.192;2023-05-14T12:43:57;26.50;57.60
60717;DHT22;46566;52.700;6.192;2023-05-14T12:46:25;26.50;56.80
60717;DHT22;46566;52.700;6.192;2023-05-14T12:48:51;26.60;56.80
60717;DHT22;46566;52.700;6.192;2023-05-14T12:51:17;26.70;58.00
60717;DHT22;46566;52.700;6.192;2023-05-14T12:53:43;26.70;57.10
60717;DHT22;46566;52.700;6.192;2023-05-14T12:56:09;26.80;55.60
60717;DHT22;46566;52.700;6.192;2023-05-14T12:58:34;26.80;56.40
60717;DHT22;46566;52.700;6.192;2023-05-14T13:01:00;26.80;55.60
60717;DHT22;46566;52.700;6.192;2023-05-14T13:06:21;26.60;52.70
60717;DHT22;46566;52.700;6.192;2023-05-14T13:08:47;26.50;53.70
60717;DHT22;46566;52.700;6.192;2023-05-14T13:11:13;26.40;53.00
60717;DHT22;46566;52.700;6.192;2023-05-14T13:13:39;26.30;53.30
60717;DHT22;46566;52.700;6.192;2023-05-14T13:16:05;26.20;54.10
60717;DHT22;46566;52.700;6.192;2023-05-14T13:18:30;26.10;54.20
60717;DHT22;46566;52.700;6.192;2023-05-14T13:20:56;25.90;53.60
60717;DHT22;46566;52.700;6.192;2023-05-14T13:23:22;25.80;54.40
60717;DHT22;46566;52.700;6.192;2023-05-14T13:25:47;25.70;54.80
60717;DHT22;46566;52.700;6.192;2023-05-14T13:28:17;25.80;55.80
60717;DHT22;46566;52.700;6.192;2023-05-14T13:31:11;25.70;53.50
60717;DHT22;46566;52.700;6.192;2023-05-14T13:33:40;25.60;52.40
60717;DHT22;46566;52.700;6.192;2023-05-14T13:36:06;25.40;51.60
60717;DHT22;46566;52.700;6.192;2023-05-14T13:38:32;25.30;53.40
60717;DHT22;46566;52.700;6.192;2023-05-14T13:40:58;25.30;52.50
60717;DHT22;46566;52.700;6.192;2023-05-14T13:43:34;25.30;54.20
60717;DHT22;46566;52.700;6.192;2023-05-14T13:46:01;25.10;52.00
60717;DHT22;46566;52.700;6.192;2023-05-14T13:48:26;25.10;55.00
60717;DHT22;46566;52.700;6.192;2023-05-14T13:50:53;25.10;57.10
60717;DHT22;46566;52.700;6.192;2023-05-14T13:53:19;24.90;50.40
60717;DHT22;46566;52.700;6.192;2023-05-14T13:55:45;24.90;53.30
60717;DHT22;46566;52.700;6.192;2023-05-14T13:58:11;25.00;54.30
60717;DHT22;46566;52.700;6.192;2023-05-14T14:00:37;25.00;49.70
60717;DHT22;46566;52.700;6.192;2023-05-14T14:03:04;25.00;49.20
60717;DHT22;46566;52.700;6.192;2023-05-14T14:05:29;24.80;47.10
60717;DHT22;46566;52.700;6.192;2023-05-14T14:07:56;24.80;49.90
60717;DHT22;46566;52.700;6.192;2023-05-14T14:10:22;24.90;47.90
60717;DHT22;46566;52.700;6.192;2023-05-14T14:12:48;24.90;48.30
60717;DHT22;46566;52.700;6.192;2023-05-14T14:15:14;25.00;48.30
60717;DHT22;46566;52.700;6.192;2023-05-14T14:17:40;25.20;46.80
60717;DHT22;46566;52.700;6.192;2023-05-14T14:20:07;25.30;47.80
60717;DHT22;46566;52.700;6.192;2023-05-14T14:22:34;25.30;48.30
60717;DHT22;46566;52.700;6.192;2023-05-14T14:25:00;25.30;47.10
60717;DHT22;46566;52.700;6.192;2023-05-14T14:27:26;25.30;48.00
60717;DHT22;46566;52.700;6.192;2023-05-14T14:29:52;25.30;48.50
60717;DHT22;46566;52.700;6.192;2023-05-14T14:32:17;25.30;46.30
60717;DHT22;46566;52.700;6.192;2023-05-14T14:34:43;25.40;47.40
60717;DHT22;46566;52.700;6.192;2023-05-14T14:37:09;25.30;44.90
60717;DHT22;46566;52.700;6.192;2023-05-14T14:39:34;25.00;46.60
60717;DHT22;46566;52.700;6.192;2023-05-14T14:42:00;24.90;45.80
60717;DHT22;46566;52.700;6.192;2023-05-14T14:44:26;24.90;47.00
60717;DHT22;46566;52.700;6.192;2023-05-14T14:46:51;25.00;47.60
60717;DHT22;46566;52.700;6.192;2023-05-14T14:49:17;25.10;47.70
60717;DHT22;46566;52.700;6.192;2023-05-14T14:51:43;25.10;47.80
60717;DHT22;46566;52.700;6.192;2023-05-14T14:54:09;25.10;45.90
60717;DHT22;46566;52.700;6.192;2023-05-14T14:56:34;25.10;46.70
60717;DHT22;46566;52.700;6.192;2023-05-14T14:59:00;25.20;48.50
60717;DHT22;46566;52.700;6.192;2023-05-14T15:01:26;25.20;48.60
60717;DHT22;46566;52.700;6.192;2023-05-14T15:03:52;25.20;48.70
60717;DHT22;46566;52.700;6.192;2023-05-14T15:06:17;25.30;48.80
60717;DHT22;46566;52.700;6.192;2023-05-14T15:08:43;25.40;49.80
60717;DHT22;46566;52.700;6.192;2023-05-14T15:11:09;25.40;48.60
60717;DHT22;46566;52.700;6.192;2023-05-14T15:13:35;25.40;49.30
60717;DHT22;46566;52.700;6.192;2023-05-14T15:16:00;25.40;47.50
60717;DHT22;46566;52.700;6.192;2023-05-14T15:18:26;25.40;49.10
60717;DHT22;46566;52.700;6.192;2023-05-14T15:20:52;25.30;52.00
60717;DHT22;46566;52.700;6.192;2023-05-14T15:23:18;25.20;54.80
60717;DHT22;46566;52.700;6.192;2023-05-14T15:25:43;25.10;55.80
60717;DHT22;46566;52.700;6.192;2023-05-14T15:28:09;24.90;56.50
60717;DHT22;46566;52.700;6.192;2023-05-14T15:30:35;24.80;56.10
60717;DHT22;46566;52.700;6.192;2023-05-14T15:33:01;24.60;56.30
60717;DHT22;46566;52.700;6.192;2023-05-14T15:35:27;24.50;56.70
60717;DHT22;46566;52.700;6.192;2023-05-14T15:37:57;24.40;57.50
60717;DHT22;46566;52.700;6.192;2023-05-14T15:40:22;24.30;57.70
60717;DHT22;46566;52.700;6.192;2023-05-14T15:42:48;24.20;58.40
60717;DHT22;46566;52.700;6.192;2023-05-14T15:45:14;24.10;58.60
60717;DHT22;46566;52.700;6.192;2023-05-14T15:47:40;24.10;57.90